Williams Lake Airport
CYWL : now visible

Airfield :











YOU CAN JOIN US ON...

 
LOGIN :

Register | Disclaimer

   EN    FR    IT 

 









Legend :    VFR   Marginal VFR   IFR   Intensive IFR   Very Intensive IFR
Visi :
Ceiling :
>= 8 km
>= 3000ft
5 to 8 km
1000 to 3000 ft
1500m to 5 km
500 to 1000 ft
800 to 1500m
200 to 500 ft
< 800m
< 200 ft
Symbols :   Thunderstorms  Fog  Heavy snow  Heavy precipitations  Wind > 20 kt






- Airport Elevation : 3085 ft
- IATA code : YWL


CYWL - Williams Lake

CURRENT METAR :
  • 071500Z 13003KT 1SM BR OVC002 08/07 A3002 RMK FG4ST4 SLP183

EXPIRED METARs :
  • 071414Z 15004KT 110V170 1SM BR VV002 07/07 A3001 RMK FG8 SLP178
  • 071400Z 13004KT 1/4SM FG VV002 07/07 A3001 RMK FG8 SLP177
  • 071300Z 13003KT 1/4SM FG VV002 07/07 A3000 RMK FG8 SLP172

TAF AMD TAF CYWL
Valid from the 07 at 13:00 until the 08 at 01:00 UTC


071312Z 0713/0801 14005KT 1/2SM FG VV002
TEMPO 0713/0714 2SM BR OVC005
BECMG 0714/0716 P6SM NSW FEW005 SCT060
FM071600 15008KT P6SM SCT060
FM072100 18010KT P6SM BKN070
TEMPO 0721/0801 P6SM -SHRA RMK NXT FCST BY 071900Z
CZVR FIR / North America



MET'MAP, your aeronautical weather chart ! - Copyright ORBIFLY December 2007 - Disclaimer

ORBIFLY MET'MAP TEAM :

Programming & Development : Alexandra Zaïnal
Concept & original design : Baudouin d'Aumeries
Assistance for programming : Marc-Olivier Méhu
Technical & hardware support : Manuel Goepfert

Contact : metmap@orbifly.com




SOURCES & CREDITS :

   NOAA       Earth
Advisory